Pendennis Point, United Kingdom

8:12 PM GMT on December 19, 2014 (GMT +0000)
Comfort Rd Mylor Bridge | Change Station
CLOSE
Current Station
Personal Weather Station
Location: Mylor Bridge,
Elevation: 56 ft
Nearby Weather Stations

Elev 56 ft 50.19 °N, 5.08 °W | Updated 2 minutes ago

Mostly Cloudy
Mostly Cloudy
48.0 °F
Feels Like 43 °F
N
12.0
Wind Variable Wind from West
Gusts 16.0 mph

Today
High -- | Low -- °F
--% Chance of Precip.
Yesterday
High -- | Low -- °F
Precip. -- in
8:15 AM 4:18 PM
Waning Crescent, 6% visible
Pressure 30.33 in
Visibility 6.2 miles
Clouds Few 2000 ft
Mostly Cloudy 3000 ft
Windchill 43 °F
Dew Point 40 °F
Humidity 73%
Rainfall 0.08 in
Snow Depth Not available.
UV 0 out of 12
Pollen Not available.
Air Quality Not available.
Flu Activity Not available.
METAR EGDR 191950Z 28010KT 9999 FEW020 BKN030 08/04 Q1027 BLU

More Conditions Fewer Conditions

Pressure 30.33 in
Visibility 6.2 miles
Clouds Few 2000 ft
Mostly Cloudy 3000 ft
Windchill 43 °F
Dew Point 40 °F
Humidity 73%
Rainfall 0.08 in
Snow Depth Not available.
UV 0 out of 12
Pollen Not available.
Air Quality Not available.
Flu Activity Not available.
METAR EGDR 191950Z 28010KT 9999 FEW020 BKN030 08/04 Q1027 BLU

More Conditions Fewer Conditions

10-Day Weather Forecast

Almanac

Astronomy

Dec. 19, 2014 Rise Set
Actual Time
Civil Twilight
Nautical Twilight
Astronomical Twilight
Moon
Length of Visible Light
Length of Day
Tomorrow will be .
, % of the Moon is Illuminated

Today's Extremes

Country Highs Country Lows

Community

WunderPhotos

Upload Photos

1,779,048 photos uploaded!

WunderBlogs® & News

Nearby

Air Quality

  Air Quality AQ Index Pollutant
Not available.

Snow Depth

Station Depth Elevation

Earthquake Activity

City Distance Mag. Time & Date
Minimum magnitude displayed is 2.5.

Coastal Water Temperatures

Place Temperature

Nearby Weather Stations